Time;durP1;ratioP1;P1;durP2;ratioP2;P2;SDS_P1;SDS_P2;PMS_P1;PMS_P2;Temp;Humidity;BMP_temperature;BMP_pressure;BME280_temperature;BME280_humidity;BME280_pressure;Samples;Min_cycle;Max_cycle;Signal;HPM_P1;HPM_P2
2023/10/28 00:00:31;;;;;;;2.85;1.05;;;9.90;99.90;;;;;;5072218;28;20025;-76
2023/10/28 00:02:57;;;;;;;;;;;10.00;99.90;;;;;;5072791;28;20091;-77
2023/10/28 00:05:24;;;;;;;2.55;1.00;;;9.90;99.90;;;;;;5072714;28;19905;-77
2023/10/28 00:07:50;;;;;;;2.05;1.00;;;9.80;99.90;;;;;;5072302;28;20300;-77
2023/10/28 00:10:16;;;;;;;;;;;9.80;99.90;;;;;;5072671;28;20075;-76
2023/10/28 00:12:41;;;;;;;2.13;1.20;;;9.80;99.90;;;;;;5071918;28;19913;-77
2023/10/28 00:15:08;;;;;;;4.72;1.00;;;9.80;99.90;;;;;;5072389;28;20550;-77
2023/10/28 00:17:33;;;;;;;3.53;1.10;;;9.80;99.90;;;;;;5072166;28;20508;-77
2023/10/28 00:20:04;;;;;;;;;;;9.80;99.90;;;;;;5071517;28;20060;-77
2023/10/28 00:22:33;;;;;;;3.53;0.90;;;9.80;99.90;;;;;;5070521;28;19904;-77
2023/10/28 00:24:59;;;;;;;3.65;0.98;;;9.80;99.90;;;;;;5071097;28;20039;-77
2023/10/28 00:27:24;;;;;;;;;;;9.80;99.90;;;;;;5072796;28;20091;-78
2023/10/28 00:29:52;;;;;;;1.90;0.68;;;9.80;99.90;;;;;;5072262;28;19908;-77
2023/10/28 00:32:22;;;;;;;3.38;0.65;;;9.80;99.90;;;;;;5072089;28;20511;-78
2023/10/28 00:34:49;;;;;;;1.48;0.80;;;9.80;99.90;;;;;;5072140;28;20020;-78
2023/10/28 00:37:14;;;;;;;1.92;0.40;;;9.80;99.90;;;;;;5072590;28;20028;-77
2023/10/28 00:39:42;;;;;;;;;;;9.80;99.90;;;;;;5072353;28;20503;-77
2023/10/28 00:42:07;;;;;;;;;;;9.80;99.90;;;;;;5072438;28;20437;-77
2023/10/28 00:44:33;;;;;;;1.85;0.60;;;9.80;99.90;;;;;;5070541;28;19909;-77
2023/10/28 00:46:59;;;;;;;;;;;9.80;99.90;;;;;;5072467;28;20028;-77
2023/10/28 00:49:24;;;;;;;2.25;0.63;;;9.80;99.90;;;;;;5070925;28;19962;-77
2023/10/28 00:51:50;;;;;;;;;;;9.70;99.90;;;;;;5072125;28;20041;-78
2023/10/28 00:54:15;;;;;;;2.42;0.50;;;9.80;99.90;;;;;;5070661;28;19912;-77
2023/10/28 00:56:41;;;;;;;1.92;0.60;;;9.80;99.90;;;;;;5072501;28;20020;-78
2023/10/28 00:59:07;;;;;;;1.95;0.60;;;9.70;99.90;;;;;;5071990;28;20070;-77
2023/10/28 01:01:33;;;;;;;;;;;9.60;99.90;;;;;;5071382;28;20025;-78
2023/10/28 01:03:58;;;;;;;1.42;0.50;;;9.50;99.90;;;;;;5070911;28;19952;-77
2023/10/28 01:06:24;;;;;;;;;;;9.50;99.90;;;;;;5070801;28;20068;-77
2023/10/28 01:08:49;;;;;;;2.65;0.50;;;9.50;99.90;;;;;;5070053;28;19994;-78
2023/10/28 01:11:15;;;;;;;;;;;9.50;99.90;;;;;;5071182;28;20477;-77
2023/10/28 01:13:41;;;;;;;2.58;0.70;;;9.50;99.90;;;;;;5070552;28;19931;-77
2023/10/28 01:16:08;;;;;;;;;;;9.50;99.90;;;;;;5070964;28;20507;-77
2023/10/28 01:18:34;;;;;;;3.17;0.98;;;9.50;99.90;;;;;;5072247;28;19909;-77
2023/10/28 01:21:13;;;;;;;2.03;0.50;;;9.50;99.90;;;;;;5072815;28;20031;-77
2023/10/28 01:23:40;;;;;;;1.45;0.60;;;9.50;99.90;;;;;;5074003;28;20050;-77
2023/10/28 01:26:05;;;;;;;3.85;0.70;;;9.50;99.90;;;;;;5071894;28;20119;-77
2023/10/28 01:28:32;;;;;;;;;;;9.50;99.90;;;;;;5071348;28;20452;-77
2023/10/28 01:30:59;;;;;;;2.08;0.80;;;9.50;99.90;;;;;;5069219;28;19909;-77
2023/10/28 01:33:25;;;;;;;2.28;0.80;;;9.50;99.90;;;;;;5069289;28;20130;-77
2023/10/28 01:35:51;;;;;;;;;;;9.50;99.90;;;;;;5069777;28;20514;-76
2023/10/28 01:38:17;;;;;;;2.13;0.70;;;9.50;99.90;;;;;;5069014;28;19904;-77
2023/10/28 01:40:42;;;;;;;3.88;0.80;;;9.50;99.90;;;;;;5069335;28;20501;-78
2023/10/28 01:43:08;;;;;;;;;;;9.50;99.90;;;;;;5069474;28;20063;-77
2023/10/28 01:45:34;;;;;;;6.07;0.98;;;9.60;99.90;;;;;;5069223;28;19908;-77
2023/10/28 01:47:59;;;;;;;;;;;9.60;99.90;;;;;;5069981;28;20119;-77
2023/10/28 01:50:25;;;;;;;2.20;0.95;;;9.50;99.90;;;;;;5069406;28;19916;-78
2023/10/28 01:52:51;;;;;;;2.30;0.88;;;9.60;99.90;;;;;;5070939;28;20025;-77
2023/10/28 01:55:16;;;;;;;;;;;9.60;99.90;;;;;;5070927;28;20037;-77
2023/10/28 01:57:42;;;;;;;1.30;0.80;;;9.60;99.90;;;;;;5069140;28;19904;-77
2023/10/28 02:00:12;;;;;;;2.17;1.02;;;9.60;99.90;;;;;;5068941;28;20119;-77
2023/10/28 02:02:38;;;;;;;5.85;1.25;;;9.60;99.90;;;;;;5069355;28;20412;-77
2023/10/28 02:05:04;;;;;;;2.63;1.08;;;9.60;99.90;;;;;;5070736;28;20029;-77
2023/10/28 02:07:30;;;;;;;1.58;0.70;;;9.60;99.90;;;;;;5069217;28;20024;-78
2023/10/28 02:09:55;;;;;;;;;;;9.60;99.90;;;;;;5071158;28;20027;-77
2023/10/28 02:12:21;;;;;;;1.70;0.90;;;9.60;99.90;;;;;;5069917;28;20304;-77
2023/10/28 02:14:47;;;;;;;1.88;1.05;;;9.50;99.90;;;;;;5070774;28;20036;-77
2023/10/28 02:17:12;;;;;;;;;;;9.60;99.90;;;;;;5071057;28;20544;-77
2023/10/28 02:19:39;;;;;;;2.55;1.02;;;9.60;99.90;;;;;;5072666;28;19904;-77
2023/10/28 02:22:04;;;;;;;2.92;1.27;;;9.60;99.90;;;;;;5073301;28;20451;-77
2023/10/28 02:24:30;;;;;;;;;;;9.60;99.90;;;;;;5073520;28;20021;-77
2023/10/28 02:26:56;;;;;;;4.55;1.58;;;9.50;99.90;;;;;;5074331;28;19912;-77
2023/10/28 02:29:22;;;;;;;;;;;9.60;99.90;;;;;;5075138;28;20103;-77
2023/10/28 02:31:48;;;;;;;2.47;0.60;;;9.50;99.90;;;;;;5073000;28;19905;-78
2023/10/28 02:34:15;;;;;;;2.28;1.00;;;9.50;99.90;;;;;;5073054;28;20378;-77
2023/10/28 02:36:40;;;;;;;3.67;0.85;;;9.50;99.90;;;;;;5074415;28;20066;-77
2023/10/28 02:39:06;;;;;;;;;;;9.50;99.90;;;;;;5073675;28;20028;-77
2023/10/28 02:41:32;;;;;;;3.83;1.17;;;9.50;99.90;;;;;;5073036;28;20411;-77
2023/10/28 02:43:58;;;;;;;1.83;0.75;;;9.40;99.90;;;;;;5074515;28;20021;-77
2023/10/28 02:46:25;;;;;;;2.35;0.73;;;9.50;99.90;;;;;;5074108;28;20488;-77
2023/10/28 02:48:51;;;;;;;2.63;1.23;;;9.50;99.90;;;;;;5074426;28;20024;-77
2023/10/28 02:51:17;;;;;;;1.52;0.60;;;9.60;99.90;;;;;;5074290;28;20059;-76
2023/10/28 02:53:43;;;;;;;2.95;0.70;;;9.60;99.90;;;;;;5073049;28;20020;-77
2023/10/28 02:56:09;;;;;;;;;;;9.60;99.90;;;;;;5073362;28;20028;-78
2023/10/28 02:58:35;;;;;;;1.50;0.65;;;9.60;99.90;;;;;;5073941;28;19915;-77
2023/10/28 03:01:08;;;;;;;2.85;0.68;;;9.70;99.90;;;;;;5075798;28;20508;-77
2023/10/28 03:03:34;;;;;;;2.92;0.60;;;9.70;99.90;;;;;;5073873;28;20025;-77
2023/10/28 03:05:59;;;;;;;;;;;9.70;99.90;;;;;;5074005;28;20043;-77
2023/10/28 03:08:25;;;;;;;2.00;0.60;;;9.70;99.90;;;;;;5072944;28;19938;-77
2023/10/28 03:10:50;;;;;;;3.05;0.63;;;9.60;99.90;;;;;;5070767;28;20432;-77
2023/10/28 03:13:16;;;;;;;2.85;1.20;;;9.60;99.90;;;;;;5071107;28;20445;-78
2023/10/28 03:15:45;;;;;;;;;;;9.60;99.90;;;;;;5073105;28;20465;-77
2023/10/28 03:18:11;;;;;;;5.32;0.88;;;9.50;99.90;;;;;;5072516;28;19935;-77
2023/10/28 03:20:37;;;;;;;;;;;9.40;99.90;;;;;;5074268;28;20473;-77
2023/10/28 03:23:02;;;;;;;4.85;0.93;;;9.40;99.90;;;;;;5072424;28;19912;-78
2023/10/28 03:25:28;;;;;;;;;;;9.40;99.90;;;;;;5072913;28;20024;-77
2023/10/28 03:27:54;;;;;;;3.22;0.70;;;9.30;99.90;;;;;;5074282;28;19905;-77
2023/10/28 03:30:19;;;;;;;;;;;9.30;99.90;;;;;;5072328;28;20021;-77
2023/10/28 03:32:45;;;;;;;1.45;0.60;;;9.30;99.90;;;;;;5074278;28;19943;-78
2023/10/28 03:35:10;;;;;;;;;;;9.20;99.90;;;;;;5076352;28;20117;-78
2023/10/28 03:37:37;;;;;;;2.72;0.90;;;9.10;99.90;;;;;;5073946;28;19979;-77
2023/10/28 03:40:04;;;;;;;6.63;0.85;;;9.20;99.90;;;;;;5071504;28;20116;-77
2023/10/28 03:42:30;;;;;;;4.05;1.10;;;9.20;99.90;;;;;;5071377;28;20028;-77
2023/10/28 03:44:56;;;;;;;;;;;9.20;99.90;;;;;;5073165;28;20504;-77
2023/10/28 03:47:22;;;;;;;5.57;1.35;;;9.20;99.90;;;;;;5072481;28;19908;-76
2023/10/28 03:49:47;;;;;;;;;;;9.20;99.90;;;;;;5073561;28;20090;-77
2023/10/28 03:52:13;;;;;;;2.60;0.70;;;9.20;99.90;;;;;;5073029;28;20350;-77
2023/10/28 03:54:39;;;;;;;;;;;9.20;99.90;;;;;;5072439;28;20551;-77
2023/10/28 03:57:04;;;;;;;4.78;0.88;;;9.20;99.90;;;;;;5071863;28;20021;-78
2023/10/28 03:59:30;;;;;;;3.78;0.55;;;9.10;99.90;;;;;;5072551;28;20080;-77
2023/10/28 04:01:56;;;;;;;;;;;9.10;99.90;;;;;;5073159;28;20024;-78
2023/10/28 04:04:21;;;;;;;3.35;1.15;;;9.10;99.90;;;;;;5072928;28;20285;-77
2023/10/28 04:06:47;;;;;;;1.88;0.50;;;9.10;99.90;;;;;;5071747;28;20021;-77
2023/10/28 04:09:15;;;;;;;;;;;9.00;99.90;;;;;;5071542;28;20119;-77
2023/10/28 04:11:41;;;;;;;2.80;0.93;;;9.00;99.90;;;;;;5071418;28;19916;-76
2023/10/28 04:14:07;;;;;;;;;;;9.00;99.90;;;;;;5073025;28;20477;-77
2023/10/28 04:16:33;;;;;;;3.55;0.80;;;9.00;99.90;;;;;;5071345;28;20350;-77
2023/10/28 04:18:59;;;;;;;6.05;0.80;;;9.00;99.90;;;;;;5072829;28;20060;-77
2023/10/28 04:21:25;;;;;;;1.52;0.75;;;9.00;99.90;;;;;;5071520;28;20032;-78
2023/10/28 04:23:51;;;;;;;;;;;9.00;99.90;;;;;;5072939;28;20089;-77
2023/10/28 04:26:16;;;;;;;3.85;1.80;;;9.00;99.90;;;;;;5070836;28;20023;-77
2023/10/28 04:28:42;;;;;;;;;;;9.00;99.90;;;;;;5071828;28;20144;-77
2023/10/28 04:31:08;;;;;;;3.70;1.20;;;9.00;99.90;;;;;;5072435;28;20380;-77
2023/10/28 04:33:33;;;;;;;;;;;9.00;99.90;;;;;;5073375;28;20024;-76
2023/10/28 04:35:59;;;;;;;2.20;0.93;;;9.00;99.90;;;;;;5071976;28;19908;-77
2023/10/28 04:38:25;;;;;;;3.55;1.23;;;8.90;99.90;;;;;;5071532;28;20054;-77
2023/10/28 04:40:51;;;;;;;2.42;1.20;;;8.90;99.90;;;;;;5072454;28;20040;-78
2023/10/28 04:43:17;;;;;;;;;;;8.90;99.90;;;;;;5071654;28;20025;-77
2023/10/28 04:45:43;;;;;;;4.20;1.52;;;8.90;99.90;;;;;;5069761;28;20405;-76
2023/10/28 04:48:15;;;;;;;8.65;2.25;;;9.00;99.90;;;;;;5069819;28;20107;-76
2023/10/28 04:50:41;;;;;;;6.07;2.50;;;8.90;99.90;;;;;;5070933;28;20028;-77
2023/10/28 04:53:07;;;;;;;6.88;2.67;;;8.90;99.90;;;;;;5072421;28;20028;-77
2023/10/28 04:55:33;;;;;;;5.97;2.83;;;8.90;99.90;;;;;;5072313;28;20424;-77
2023/10/28 04:57:59;;;;;;;;;;;8.90;99.90;;;;;;5071834;28;20036;-76
2023/10/28 05:00:25;;;;;;;7.07;2.15;;;8.90;99.90;;;;;;5070865;28;20520;-77
2023/10/28 05:02:51;;;;;;;3.88;1.40;;;8.90;99.90;;;;;;5074199;28;20025;-79
2023/10/28 05:05:17;;;;;;;;;;;8.80;99.90;;;;;;5081805;28;20446;-77
2023/10/28 05:07:43;;;;;;;3.92;1.70;;;8.70;99.90;;;;;;5081910;28;19916;-78
2023/10/28 05:10:09;;;;;;;;;;;8.70;99.90;;;;;;5071455;28;20028;-77
2023/10/28 05:12:40;;;;;;;5.93;1.85;;;8.70;99.90;;;;;;5079431;28;20514;-76
2023/10/28 05:15:09;;;;;;;7.15;3.05;;;8.60;99.90;;;;;;5093244;28;20050;-77
2023/10/28 05:17:37;;;;;;;13.48;7.53;;;8.60;99.90;;;;;;5092032;28;20026;-78
2023/10/28 05:20:07;;;;;;;15.73;7.40;;;8.60;99.90;;;;;;5091778;28;20036;-77
2023/10/28 05:22:41;;;;;;;14.85;7.90;;;8.50;99.90;;;;;;5092252;28;20020;-78
2023/10/28 05:25:07;;;;;;;19.33;3.85;;;8.60;99.90;;;;;;5092496;28;20077;-77
2023/10/28 05:27:34;;;;;;;6.25;3.10;;;8.50;99.90;;;;;;5093314;28;20035;-79
2023/10/28 05:30:00;;;;;;;4.53;2.20;;;8.50;99.90;;;;;;5094559;28;20035;-78
2023/10/28 05:32:25;;;;;;;;;;;8.50;99.90;;;;;;5093473;28;20423;-78
2023/10/28 05:34:51;;;;;;;10.18;1.80;;;8.40;99.90;;;;;;5094254;28;19916;-78
2023/10/28 05:37:17;;;;;;;;;;;8.40;99.90;;;;;;5094963;28;20450;-78
2023/10/28 05:39:42;;;;;;;6.22;2.60;;;8.40;99.90;;;;;;5093222;28;19915;-78
2023/10/28 05:42:10;;;;;;;;;;;8.40;99.90;;;;;;5094970;28;20035;-77
2023/10/28 05:44:36;;;;;;;11.20;5.97;;;8.40;99.90;;;;;;5095276;28;19918;-78
2023/10/28 05:47:03;;;;;;;12.18;6.60;;;8.40;99.90;;;;;;5099231;28;20353;-79
2023/10/28 05:49:28;;;;;;;;;;;8.40;99.90;;;;;;5100522;28;20426;-77
2023/10/28 05:51:54;;;;;;;18.38;11.35;;;8.30;99.90;;;;;;5091604;28;19953;-78
2023/10/28 05:54:20;;;;;;;;;;;8.40;99.90;;;;;;5094418;28;20028;-78
2023/10/28 05:56:46;;;;;;;95.43;58.60;;;8.40;99.90;;;;;;5094779;28;20407;-78
2023/10/28 05:59:11;;;;;;;;;;;8.40;99.90;;;;;;5096176;28;20181;-77
2023/10/28 06:01:37;;;;;;;22.58;14.73;;;8.40;99.90;;;;;;5095415;28;19908;-77
2023/10/28 06:04:03;;;;;;;14.38;9.45;;;8.50;99.90;;;;;;5094161;28;20117;-77
2023/10/28 06:06:29;;;;;;;12.43;7.78;;;8.50;99.90;;;;;;5093817;28;20031;-77
2023/10/28 06:08:57;;;;;;;;;;;8.50;99.90;;;;;;5095452;28;20024;-76
2023/10/28 06:11:23;;;;;;;15.57;7.75;;;8.60;99.90;;;;;;5094865;28;20376;-78
2023/10/28 06:13:48;;;;;;;;;;;8.70;99.90;;;;;;5093191;28;20059;-78
2023/10/28 06:16:14;;;;;;;8.48;5.85;;;8.70;99.90;;;;;;5093185;28;19943;-77
2023/10/28 06:18:40;;;;;;;;;;;8.80;99.90;;;;;;5095362;28;20059;-77
2023/10/28 06:21:06;;;;;;;8.48;4.68;;;9.00;99.90;;;;;;5093898;28;20473;-78
2023/10/28 06:23:31;;;;;;;6.10;3.40;;;9.20;99.90;;;;;;5093650;28;20074;-77
2023/10/28 06:25:57;;;;;;;;;;;9.40;99.90;;;;;;5093342;28;20586;-77
2023/10/28 06:28:23;;;;;;;6.07;3.55;;;9.70;99.90;;;;;;5093132;28;19911;-77
2023/10/28 06:30:49;;;;;;;2.70;1.70;;;9.90;99.90;;;;;;5094282;28;20525;-77
2023/10/28 06:33:15;;;;;;;4.78;1.98;;;10.10;99.90;;;;;;5092826;28;20051;-77
2023/10/28 06:35:42;;;;;;;2.85;1.63;;;10.20;99.90;;;;;;5092855;28;20040;-77
2023/10/28 06:38:08;;;;;;;3.25;1.30;;;10.40;99.90;;;;;;5092541;28;20023;-77
2023/10/28 06:40:37;;;;;;;3.15;1.58;;;10.60;99.90;;;;;;5092962;28;20056;-78
2023/10/28 06:43:03;;;;;;;6.22;2.08;;;10.80;99.90;;;;;;5093922;28;20076;-77
2023/10/28 06:45:29;;;;;;;8.25;1.58;;;11.00;99.90;;;;;;5093742;28;20568;-78
2023/10/28 06:47:55;;;;;;;;;;;11.20;99.90;;;;;;5094307;28;20110;-78
2023/10/28 06:50:21;;;;;;;2.45;1.30;;;11.30;99.90;;;;;;5093427;28;20269;-77
2023/10/28 06:52:50;;;;;;;3.30;1.60;;;11.50;99.90;;;;;;5091864;28;20194;-78
2023/10/28 06:55:17;;;;;;;3.22;1.38;;;11.70;99.90;;;;;;5093143;28;20038;-78
2023/10/28 06:57:46;;;;;;;2.50;0.93;;;11.90;99.90;;;;;;5091542;28;20028;-79
2023/10/28 07:00:13;;;;;;;4.78;1.30;;;12.10;99.90;;;;;;5092968;28;20027;-77
2023/10/28 07:02:43;;;;;;;3.15;1.17;;;12.20;99.90;;;;;;5091751;28;20028;-77
2023/10/28 07:05:10;;;;;;;3.17;1.02;;;12.30;99.90;;;;;;5091327;28;20165;-77
2023/10/28 07:07:37;;;;;;;2.00;0.85;;;12.30;99.90;;;;;;5090320;28;20024;-78
2023/10/28 07:10:03;;;;;;;3.20;0.75;;;12.30;99.90;;;;;;5092523;28;20032;-78
2023/10/28 07:12:29;;;;;;;2.00;1.10;;;12.30;99.90;;;;;;5091985;28;20427;-78
2023/10/28 07:14:55;;;;;;;3.33;1.00;;;12.50;99.90;;;;;;5090883;28;20092;-78
2023/10/28 07:17:22;;;;;;;3.75;1.27;;;12.60;99.90;;;;;;5090428;28;20031;-76
2023/10/28 07:19:48;;;;;;;2.53;0.82;;;12.80;99.90;;;;;;5092317;28;20507;-79
2023/10/28 07:22:16;;;;;;;2.45;1.00;;;13.10;99.90;;;;;;5090423;28;20500;-78
2023/10/28 07:24:42;;;;;;;4.53;1.50;;;13.30;99.90;;;;;;5092481;28;20024;-80
2023/10/28 07:27:08;;;;;;;3.83;1.40;;;13.40;99.90;;;;;;5090087;28;20521;-78
2023/10/28 07:29:34;;;;;;;5.15;1.67;;;13.30;99.90;;;;;;5090882;28;20059;-79
2023/10/28 07:32:02;;;;;;;5.53;1.58;;;13.30;99.90;;;;;;5089453;28;20507;-79
2023/10/28 07:34:28;;;;;;;3.47;1.00;;;13.30;99.90;;;;;;5081345;28;20032;-79
2023/10/28 07:36:53;;;;;;;1.70;0.57;;;13.40;99.90;;;;;;5091950;28;20039;-79
2023/10/28 07:39:19;;;;;;;1.30;0.60;;;13.50;99.90;;;;;;5090959;28;20032;-79
2023/10/28 07:41:45;;;;;;;2.38;0.50;;;13.60;99.90;;;;;;5092034;28;20110;-79
2023/10/28 07:44:10;;;;;;;4.45;0.40;;;13.70;99.90;;;;;;5091998;28;20036;-78
2023/10/28 07:46:36;;;;;;;2.60;0.45;;;13.90;99.90;;;;;;5089636;28;20028;-79
2023/10/28 07:49:02;;;;;;;2.65;0.50;;;14.10;99.90;;;;;;5091795;28;20079;-78
2023/10/28 07:51:27;;;;;;;1.58;0.30;;;14.30;99.90;;;;;;5089899;28;20148;-77
2023/10/28 07:53:53;;;;;;;1.25;0.50;;;14.50;99.90;;;;;;5091265;28;20132;-77
2023/10/28 07:56:22;;;;;;;5.47;0.70;;;14.60;99.90;;;;;;5089719;28;20514;-77
2023/10/28 07:58:50;;;;;;;1.92;0.50;;;14.60;99.90;;;;;;5090021;28;20035;-78
2023/10/28 08:01:19;;;;;;;3.33;0.45;;;14.50;99.90;;;;;;5090698;28;20073;-77
2023/10/28 08:03:48;;;;;;;5.90;0.60;;;14.30;99.90;;;;;;5089320;28;20043;-77
2023/10/28 08:06:14;;;;;;;1.00;0.40;;;14.30;99.90;;;;;;5091659;28;20046;-81
2023/10/28 08:08:40;;;;;;;1.27;0.40;;;14.50;99.90;;;;;;5091282;28;20646;-80
2023/10/28 08:11:08;;;;;;;1.27;0.30;;;14.60;99.90;;;;;;5089992;28;20131;-78
2023/10/28 08:13:34;;;;;;;2.80;0.50;;;14.70;99.90;;;;;;5090512;28;20031;-80
2023/10/28 08:16:01;;;;;;;1.77;0.40;;;14.80;99.90;;;;;;5090641;28;20113;-78
2023/10/28 08:18:30;;;;;;;4.53;0.70;;;14.90;99.90;;;;;;5091150;28;20027;-78
2023/10/28 08:20:55;;;;;;;2.42;0.80;;;15.00;99.90;;;;;;5089274;28;20032;-78
2023/10/28 08:23:21;;;;;;;3.58;0.75;;;15.10;99.90;;;;;;5091291;28;20031;-80
2023/10/28 08:25:47;;;;;;;5.05;0.95;;;15.00;99.90;;;;;;5085729;28;20435;-79
2023/10/28 08:28:12;;;;;;;2.80;0.70;;;15.00;99.90;;;;;;5089839;28;20377;-80
2023/10/28 08:30:38;;;;;;;2.05;0.63;;;14.90;99.90;;;;;;5090061;28;20035;-80
2023/10/28 08:33:04;;;;;;;2.15;0.70;;;14.90;99.90;;;;;;5091163;28;20036;-78
2023/10/28 08:35:30;;;;;;;2.53;0.88;;;15.00;99.90;;;;;;5090242;28;20035;-79
2023/10/28 08:37:55;;;;;;;2.53;1.00;;;15.30;99.90;;;;;;5090635;28;20028;-79
2023/10/28 08:40:21;;;;;;;3.03;0.80;;;15.40;99.90;;;;;;5089832;28;20060;-77
2023/10/28 08:42:48;;;;;;;2.38;0.95;;;15.40;99.90;;;;;;5090787;28;20492;-79
2023/10/28 08:45:18;;;;;;;2.65;0.93;;;15.30;99.90;;;;;;5089482;28;20028;-80
2023/10/28 08:47:45;;;;;;;4.15;0.90;;;15.30;99.90;;;;;;5090766;28;20032;-80
2023/10/28 08:50:17;;;;;;;3.80;1.52;;;15.20;99.90;;;;;;5090727;28;20485;-78
2023/10/28 08:52:45;;;;;;;4.13;1.33;;;15.20;99.90;;;;;;5089765;28;20082;-79
2023/10/28 08:55:11;;;;;;;4.10;1.30;;;15.10;99.90;;;;;;5089779;28;20066;-79
2023/10/28 08:57:41;;;;;;;4.85;1.00;;;15.10;99.90;;;;;;5089232;28;20560;-80
2023/10/28 09:00:14;;;;;;;4.18;0.93;;;15.40;99.90;;;;;;5088331;28;20555;-77
2023/10/28 09:02:46;;;;;;;4.70;0.77;;;16.00;99.90;;;;;;5089095;28;20113;-79
2023/10/28 09:05:13;;;;;;;1.90;0.80;;;16.20;99.90;;;;;;5090489;28;20020;-78
2023/10/28 09:07:39;;;;;;;2.15;0.70;;;16.30;99.90;;;;;;5090289;28;20020;-78
2023/10/28 09:10:05;;;;;;;1.85;0.70;;;16.40;99.90;;;;;;5089537;28;20422;-77
2023/10/28 09:12:34;;;;;;;1.70;0.63;;;16.40;99.90;;;;;;5090034;28;20389;-79
2023/10/28 09:14:59;;;;;;;1.50;0.60;;;16.40;99.90;;;;;;5089358;28;20071;-78
2023/10/28 09:17:25;;;;;;;3.00;0.80;;;16.20;99.90;;;;;;5088994;28;20064;-78
2023/10/28 09:19:52;;;;;;;2.15;0.80;;;16.10;99.90;;;;;;5090262;28;20054;-79
2023/10/28 09:22:17;;;;;;;3.38;0.90;;;16.10;99.90;;;;;;5088831;28;20059;-78
2023/10/28 09:24:46;;;;;;;1.33;0.50;;;16.10;99.90;;;;;;5087571;28;20467;-79
2023/10/28 09:27:12;;;;;;;2.03;0.65;;;16.10;99.90;;;;;;5088848;28;20024;-78
2023/10/28 09:29:38;;;;;;;2.70;0.60;;;16.20;99.90;;;;;;5089528;28;20032;-78
2023/10/28 09:32:06;;;;;;;2.55;0.68;;;16.10;99.90;;;;;;5089897;28;20032;-78
2023/10/28 09:34:35;;;;;;;2.75;0.40;;;16.10;99.90;;;;;;5087389;28;20105;-78
2023/10/28 09:37:02;;;;;;;2.75;0.50;;;16.20;99.90;;;;;;5088568;28;20020;-77
2023/10/28 09:39:29;;;;;;;1.13;0.30;;;16.30;99.90;;;;;;5089058;28;20036;-78
2023/10/28 09:41:56;;;;;;;1.05;0.40;;;16.30;99.90;;;;;;5088735;28;20434;-77
2023/10/28 09:44:24;;;;;;;1.33;0.45;;;16.30;99.90;;;;;;5089864;28;20416;-78
2023/10/28 09:46:56;;;;;;;4.78;0.75;;;16.30;99.90;;;;;;5087027;28;20035;-77
2023/10/28 09:49:27;;;;;;;1.88;0.55;;;16.40;99.90;;;;;;5087280;28;20051;-78
2023/10/28 09:51:59;;;;;;;4.88;0.40;;;16.50;99.90;;;;;;5079970;28;20561;-77
2023/10/28 09:54:32;;;;;;;1.05;0.40;;;16.50;99.90;;;;;;5084559;28;20492;-79
2023/10/28 09:57:00;;;;;;;1.70;0.50;;;16.60;99.90;;;;;;5088428;28;20047;-78
2023/10/28 09:59:27;;;;;;;2.70;0.43;;;16.50;99.90;;;;;;5088009;28;20039;-77
2023/10/28 10:02:12;;;;;;;7.00;0.60;;;16.50;99.90;;;;;;5088221;28;20606;-79
2023/10/28 10:05:04;;;;;;;1.50;0.30;;;16.50;99.90;;;;;;5088310;28;20077;-78
2023/10/28 10:07:30;;;;;;;1.30;0.35;;;16.50;99.90;;;;;;5088112;28;20028;-78
2023/10/28 10:10:13;;;;;;;0.77;0.28;;;16.50;99.90;;;;;;5088612;28;20040;-79
2023/10/28 10:12:39;;;;;;;2.60;0.55;;;16.50;99.90;;;;;;5089317;28;20040;-78
2023/10/28 10:15:09;;;;;;;1.95;0.30;;;16.40;99.90;;;;;;5089261;28;20059;-76
2023/10/28 10:18:10;;;;;;;2.22;0.30;;;16.40;99.90;;;;;;5089636;28;20062;-79
2023/10/28 10:20:36;;;;;;;5.13;0.40;;;16.40;99.90;;;;;;5089621;28;20020;-78
2023/10/28 10:23:03;;;;;;;0.82;0.30;;;16.30;99.90;;;;;;5088959;28;20068;-77
2023/10/28 10:25:52;;;;;;;1.33;0.50;;;16.40;99.90;;;;;;5085111;28;20105;-79
2023/10/28 10:28:23;;;;;;;3.72;0.50;;;16.50;99.90;;;;;;5085039;28;20040;-78
2023/10/28 10:30:49;;;;;;;1.40;0.30;;;16.70;99.90;;;;;;5088963;28;20122;-78
2023/10/28 10:33:25;;;;;;;3.35;0.30;;;16.70;99.90;;;;;;5088938;28;20016;-79
2023/10/28 10:35:50;;;;;;;1.05;0.43;;;16.70;99.90;;;;;;5087592;28;20059;-78
2023/10/28 10:38:16;;;;;;;0.80;0.30;;;16.70;99.90;;;;;;5088890;28;20051;-78
2023/10/28 10:40:42;;;;;;;0.88;0.30;;;16.70;99.90;;;;;;5091385;28;20051;-79
2023/10/28 10:43:10;;;;;;;1.95;0.40;;;16.70;99.90;;;;;;5092544;28;20090;-79
2023/10/28 10:45:37;;;;;;;1.38;0.40;;;16.70;99.90;;;;;;5092992;28;20532;-79
2023/10/28 10:48:04;;;;;;;1.88;0.30;;;16.60;99.90;;;;;;5090953;28;20773;-79
2023/10/28 10:50:31;;;;;;;8.52;0.40;;;16.60;99.90;;;;;;5091217;28;20028;-78
2023/10/28 10:52:58;;;;;;;0.75;0.30;;;16.70;99.90;;;;;;5091485;28;20031;-78
2023/10/28 10:55:24;;;;;;;1.23;0.38;;;16.70;99.90;;;;;;5092464;28;20498;-78
2023/10/28 10:57:51;;;;;;;1.02;0.30;;;16.70;99.90;;;;;;5091540;28;20026;-78
2023/10/28 11:00:17;;;;;;;5.28;0.55;;;16.70;99.90;;;;;;5091517;28;20515;-77
2023/10/28 11:02:44;;;;;;;1.58;0.30;;;16.80;99.90;;;;;;5091242;28;20024;-78
2023/10/28 11:05:10;;;;;;;2.45;0.38;;;16.80;99.90;;;;;;5092642;28;20067;-78
2023/10/28 11:07:36;;;;;;;0.93;0.20;;;16.90;99.90;;;;;;5091313;28;20028;-78
2023/10/28 11:10:08;;;;;;;2.03;0.28;;;16.80;99.90;;;;;;5092314;28;20109;-79
2023/10/28 11:12:34;;;;;;;6.32;0.40;;;16.80;99.90;;;;;;5091216;28;20075;-78
2023/10/28 11:15:00;;;;;;;1.83;0.38;;;16.70;99.90;;;;;;5092335;28;20059;-78
2023/10/28 11:17:26;;;;;;;0.47;0.30;;;16.70;99.90;;;;;;5092410;28;20048;-78
2023/10/28 11:19:52;;;;;;;1.40;0.40;;;16.70;99.90;;;;;;5092458;28;20027;-80
2023/10/28 11:22:18;;;;;;;2.42;1.30;;;16.60;99.90;;;;;;5092275;28;20031;-78
2023/10/28 11:24:44;;;;;;;1.70;0.52;;;16.60;99.90;;;;;;5090990;28;20042;-79
2023/10/28 11:27:17;;;;;;;2.55;0.50;;;16.60;99.90;;;;;;5090841;28;20070;-78
2023/10/28 11:29:43;;;;;;;7.55;0.73;;;16.60;99.90;;;;;;5090798;28;20093;-77
2023/10/28 11:32:09;;;;;;;0.95;0.20;;;16.60;99.90;;;;;;5090896;28;20025;-78
2023/10/28 11:34:39;;;;;;;2.35;0.75;;;16.50;99.90;;;;;;5091896;28;20069;-79
2023/10/28 11:37:10;;;;;;;1.73;0.45;;;16.60;99.90;;;;;;5092041;28;20019;-79
2023/10/28 11:39:38;;;;;;;1.50;0.45;;;16.50;99.90;;;;;;5091858;28;20047;-77
2023/10/28 11:42:10;;;;;;;3.47;0.50;;;16.50;99.90;;;;;;5090360;28;20035;-77
2023/10/28 11:44:36;;;;;;;3.63;0.50;;;16.40;99.90;;;;;;5091764;28;20028;-79
2023/10/28 11:47:02;;;;;;;5.38;0.80;;;16.30;99.90;;;;;;5090399;28;20408;-79
2023/10/28 11:49:28;;;;;;;6.70;0.90;;;16.30;99.90;;;;;;5090425;28;20028;-79
2023/10/28 11:51:54;;;;;;;1.33;0.60;;;16.30;99.90;;;;;;5089600;28;20028;-78
2023/10/28 11:54:19;;;;;;;37.17;18.95;;;16.30;99.90;;;;;;5091582;28;20035;-78
2023/10/28 11:56:45;;;;;;;20.83;9.80;;;16.40;99.90;;;;;;5090719;28;20461;-78
2023/10/28 11:59:11;;;;;;;10.30;5.93;;;16.40;99.90;;;;;;5091588;28;20515;-80
2023/10/28 12:01:37;;;;;;;20.63;11.77;;;16.40;99.90;;;;;;5090389;28;20404;-80
2023/10/28 12:04:03;;;;;;;13.95;8.55;;;16.40;99.90;;;;;;5091732;28;20024;-79
2023/10/28 12:06:31;;;;;;;4.05;1.60;;;16.40;99.90;;;;;;5090260;28;20040;-79
2023/10/28 12:08:58;;;;;;;4.28;0.55;;;16.30;99.90;;;;;;5089976;28;20136;-78
2023/10/28 12:11:24;;;;;;;1.70;0.50;;;16.30;99.90;;;;;;5091106;28;20458;-78
2023/10/28 12:13:49;;;;;;;2.30;0.57;;;16.30;99.90;;;;;;5091462;28;20024;-79
2023/10/28 12:16:16;;;;;;;2.85;0.55;;;16.40;99.90;;;;;;5090322;28;20068;-80
2023/10/28 12:18:42;;;;;;;2.60;0.32;;;16.40;99.90;;;;;;5091269;28;20020;-79
2023/10/28 12:21:09;;;;;;;2.33;0.50;;;16.40;99.90;;;;;;5091717;28;20042;-79
2023/10/28 12:23:35;;;;;;;1.40;0.43;;;16.40;99.90;;;;;;5089902;28;20028;-78
2023/10/28 12:26:01;;;;;;;2.13;0.40;;;16.40;99.90;;;;;;5090227;28;20028;-78
2023/10/28 12:28:27;;;;;;;1.45;0.47;;;16.40;99.90;;;;;;5091110;28;20031;-78
2023/10/28 12:30:53;;;;;;;1.58;0.50;;;16.40;99.90;;;;;;5090093;28;20032;-79
2023/10/28 12:33:19;;;;;;;2.03;0.40;;;16.40;99.90;;;;;;5089473;28;20503;-79
2023/10/28 12:35:44;;;;;;;2.88;0.98;;;16.40;99.90;;;;;;5089582;28;20420;-80
2023/10/28 12:38:10;;;;;;;6.88;0.70;;;16.30;99.90;;;;;;5089518;28;20016;-78
2023/10/28 12:40:36;;;;;;;1.00;0.30;;;16.30;99.90;;;;;;5091158;28;20396;-78
2023/10/28 12:43:02;;;;;;;3.00;0.60;;;16.30;99.90;;;;;;5089518;28;20024;-79
2023/10/28 12:45:28;;;;;;;2.78;0.63;;;16.30;99.90;;;;;;5089536;28;20034;-76
2023/10/28 12:47:53;;;;;;;1.63;0.40;;;16.40;99.90;;;;;;5088957;28;20625;-76
2023/10/28 12:50:21;;;;;;;3.80;0.98;;;16.50;99.90;;;;;;5089311;28;20024;-77
2023/10/28 12:52:47;;;;;;;3.10;0.30;;;16.60;99.90;;;;;;5090691;28;20107;-77
2023/10/28 12:55:13;;;;;;;1.98;0.50;;;16.80;99.90;;;;;;5089127;28;20119;-78
2023/10/28 12:57:38;;;;;;;1.10;0.40;;;16.90;99.90;;;;;;5089075;28;20059;-78
2023/10/28 13:00:10;;;;;;;2.67;0.50;;;16.90;99.90;;;;;;5090491;28;20016;-77
2023/10/28 13:02:36;;;;;;;3.97;0.63;;;16.80;99.90;;;;;;5090387;28;20548;-77